Time;durP1;ratioP1;P1;durP2;ratioP2;P2;SDS_P1;SDS_P2;PMS_P1;PMS_P2;Temp;Humidity;BMP_temperature;BMP_pressure;BME280_temperature;BME280_humidity;BME280_pressure;Samples;Min_cycle;Max_cycle;Signal;HPM_P1;HPM_P2
2023/06/07 00:00:51;;;;;;;3.40;2.10;;;;;;;20.99;50.06;99114.53;4953725;29;19984;-83
2023/06/07 00:03:17;;;;;;;3.72;2.20;;;;;;;21.01;49.92;99119.69;4937637;29;20031;-85
2023/06/07 00:05:43;;;;;;;6.05;2.20;;;;;;;20.99;50.04;99111.88;4921526;29;20508;-83
2023/06/07 00:08:08;;;;;;;4.57;2.08;;;;;;;21.00;50.01;99118.00;4937703;29;20027;-84
2023/06/07 00:10:34;;;;;;;4.22;2.03;;;;;;;20.91;49.99;99104.81;4953319;29;20035;-84
2023/06/07 00:13:00;;;;;;;6.97;2.15;;;;;;;20.94;50.20;99112.41;4954265;28;20031;-83
2023/06/07 00:15:26;;;;;;;3.28;2.10;;;;;;;20.92;50.02;99114.44;4937600;29;20028;-83
2023/06/07 00:17:52;;;;;;;5.72;2.13;;;;;;;20.92;50.07;99108.28;4953163;29;20525;-82
2023/06/07 00:20:18;;;;;;;4.68;2.20;;;;;;;20.91;50.21;99106.63;4953097;29;20031;-82
2023/06/07 00:22:43;;;;;;;4.10;2.33;;;;;;;20.88;50.39;99107.81;4953212;29;20034;-81
2023/06/07 00:25:09;;;;;;;3.83;2.20;;;;;;;20.84;50.39;99093.25;4954178;28;20042;-82
2023/06/07 00:27:35;;;;;;;3.55;2.30;;;;;;;20.86;50.23;99098.34;4936933;29;20407;-82
2023/06/07 00:30:00;;;;;;;6.10;2.50;;;;;;;20.81;50.40;99090.94;4952919;29;20035;-81
2023/06/07 00:32:26;;;;;;;4.70;2.00;;;;;;;20.78;50.26;99092.09;4952941;29;20027;-82
2023/06/07 00:34:51;;;;;;;3.45;2.28;;;;;;;20.81;50.49;99092.75;4936728;29;20130;-81
2023/06/07 00:37:16;;;;;;;3.72;2.13;;;;;;;20.75;50.32;99087.16;4954183;28;20057;-82
2023/06/07 00:39:42;;;;;;;3.90;2.38;;;;;;;20.74;50.58;99087.31;4937005;29;20483;-82
2023/06/07 00:42:07;;;;;;;3.78;2.10;;;;;;;20.72;50.61;99078.72;4937240;29;20067;-82
2023/06/07 00:44:33;;;;;;;5.50;2.47;;;;;;;20.70;50.51;99078.03;4936937;29;20039;-82
2023/06/07 00:46:59;;;;;;;4.82;2.40;;;;;;;20.67;50.52;99073.94;4921004;29;20066;-85
2023/06/07 00:49:26;;;;;;;5.50;2.30;;;;;;;20.67;50.34;99073.94;4937092;29;20487;-82
2023/06/07 00:51:51;;;;;;;4.07;2.20;;;;;;;20.67;50.36;99079.25;4921497;29;20402;-82
2023/06/07 00:54:17;;;;;;;5.10;2.05;;;;;;;20.65;50.62;99077.75;4937145;29;20027;-82
2023/06/07 00:56:49;;;;;;;2.90;2.33;;;;;;;20.61;50.62;99074.59;4937031;29;20074;-82
2023/06/07 00:59:17;;;;;;;4.80;2.30;;;;;;;20.59;50.64;99068.66;4937876;29;20031;-83
2023/06/07 01:01:44;;;;;;;3.22;2.00;;;;;;;20.59;50.47;99073.94;4953512;29;20512;-82
2023/06/07 01:04:09;;;;;;;3.70;2.15;;;;;;;20.54;50.53;99063.88;4921838;29;20407;-82
2023/06/07 01:06:36;;;;;;;5.35;2.10;;;;;;;20.56;50.39;99066.34;4936970;29;20130;-83
2023/06/07 01:09:05;;;;;;;4.97;2.15;;;;;;;20.48;50.46;99061.06;4937127;29;20026;-85
2023/06/07 01:11:30;;;;;;;2.67;2.03;;;;;;;20.48;50.36;99064.56;4953008;28;20113;-82
2023/06/07 01:13:56;;;;;;;3.70;2.15;;;;;;;20.47;50.49;99065.53;4953144;29;20520;-82
2023/06/07 01:16:21;;;;;;;4.65;2.20;;;;;;;20.43;50.51;99057.13;4936776;29;20410;-83
2023/06/07 01:18:47;;;;;;;4.90;2.28;;;;;;;20.42;50.48;99051.97;4952796;29;20063;-83
2023/06/07 01:21:13;;;;;;;4.10;2.03;;;;;;;20.40;50.57;99059.28;4921604;29;20406;-83
2023/06/07 01:23:40;;;;;;;5.07;1.90;;;;;;;20.36;50.53;99050.03;4936803;29;20089;-83
2023/06/07 01:26:05;;;;;;;3.03;1.90;;;;;;;20.37;50.41;99056.97;4936977;29;20046;-83
2023/06/07 01:28:33;;;;;;;2.42;1.70;;;;;;;20.35;50.51;99051.00;4936887;29;20035;-83
2023/06/07 01:31:00;;;;;;;3.80;1.75;;;;;;;20.35;50.43;99053.66;4921684;29;20039;-83
2023/06/07 01:33:26;;;;;;;3.85;2.00;;;;;;;20.33;50.33;99039.75;4936756;29;20126;-83
2023/06/07 01:35:52;;;;;;;6.68;2.00;;;;;;;20.31;50.34;99047.06;4936525;29;20110;-83
2023/06/07 01:38:19;;;;;;;3.83;2.00;;;;;;;20.30;50.48;99051.53;4939931;29;20027;-84
2023/06/07 01:40:45;;;;;;;2.70;1.83;;;;;;;20.28;50.35;99042.09;4940028;29;20031;-83
2023/06/07 01:43:10;;;;;;;3.10;2.05;;;;;;;20.26;50.21;99042.28;4940329;29;20426;-83
2023/06/07 01:45:37;;;;;;;3.55;1.85;;;;;;;20.24;50.40;99045.09;4955979;28;20110;-83
2023/06/07 01:48:03;;;;;;;3.53;2.00;;;;;;;20.19;50.24;99039.50;4955590;28;20091;-83
2023/06/07 01:50:28;;;;;;;3.38;1.60;;;;;;;20.19;50.33;99039.50;4940107;29;20039;-83
2023/06/07 01:52:54;;;;;;;2.72;1.70;;;;;;;20.18;50.34;99042.31;4923933;29;20039;-83
2023/06/07 01:55:19;;;;;;;4.75;1.90;;;;;;;20.12;50.26;99041.16;4923920;29;20031;-83
2023/06/07 01:58:14;;;;;;;2.60;1.80;;;;;;;20.14;50.28;99041.81;4939830;29;20085;-83
2023/06/07 02:00:56;;;;;;;2.90;1.90;;;;;;;20.08;50.19;99036.38;4957031;28;20082;-83
2023/06/07 02:03:36;;;;;;;4.85;1.70;;;;;;;20.10;50.23;99042.31;4940041;29;20031;-83
2023/06/07 02:06:04;;;;;;;5.22;1.83;;;;;;;20.08;50.28;99047.78;4956683;28;20046;-82
2023/06/07 02:08:34;;;;;;;3.83;2.00;;;;;;;20.06;50.21;99045.31;4939821;29;20062;-82
2023/06/07 02:11:01;;;;;;;2.75;1.70;;;;;;;20.02;50.03;99038.72;4939830;29;20042;-81
2023/06/07 02:13:39;;;;;;;3.35;1.60;;;;;;;20.03;50.14;99036.88;4955652;29;20121;-81
2023/06/07 02:16:05;;;;;;;4.53;2.00;;;;;;;19.99;50.11;99039.06;4955428;28;20067;-81
2023/06/07 02:18:32;;;;;;;2.78;1.33;;;;;;;20.01;50.19;99047.66;4940013;29;20059;-82
2023/06/07 02:20:58;;;;;;;3.00;1.70;;;;;;;19.98;49.98;99044.53;4940149;29;20126;-83
2023/06/07 02:23:23;;;;;;;5.53;1.75;;;;;;;19.98;49.98;99047.19;4955577;29;20460;-83
2023/06/07 02:25:49;;;;;;;4.95;1.92;;;;;;;19.97;49.93;99045.50;4955419;29;20450;-83
2023/06/07 02:28:15;;;;;;;5.45;2.03;;;;;;;19.94;50.07;99037.91;4939322;29;20106;-83
2023/06/07 02:30:41;;;;;;;4.10;1.83;;;;;;;19.94;49.92;99046.69;4923721;29;20055;-83
2023/06/07 02:33:13;;;;;;;4.13;1.75;;;;;;;19.94;49.80;99046.69;4956467;28;20521;-83
2023/06/07 02:35:40;;;;;;;3.45;1.60;;;;;;;19.88;49.83;99039.44;4956636;28;20031;-84
2023/06/07 02:38:06;;;;;;;3.67;1.85;;;;;;;19.91;49.71;99040.88;4939580;29;20086;-84
2023/06/07 02:40:32;;;;;;;3.15;1.40;;;;;;;19.93;49.67;99049.50;4939127;29;20058;-82
2023/06/07 02:42:58;;;;;;;3.17;1.80;;;;;;;19.94;49.64;99040.56;4955888;28;20032;-83
2023/06/07 02:45:23;;;;;;;2.40;1.50;;;;;;;19.94;49.43;99049.34;4954950;29;20027;-84
2023/06/07 02:47:50;;;;;;;3.00;1.90;;;;;;;19.96;49.50;99049.19;4956049;28;20574;-83
2023/06/07 02:50:16;;;;;;;3.42;2.50;;;;;;;19.97;49.27;99045.50;4955022;29;20054;-84
2023/06/07 02:52:44;;;;;;;6.38;2.75;;;;;;;20.01;49.25;99058.25;4954838;29;20043;-84
2023/06/07 02:55:09;;;;;;;4.07;2.95;;;;;;;20.05;49.04;99046.31;4954734;28;20403;-84
2023/06/07 02:57:35;;;;;;;4.70;2.88;;;;;;;20.14;48.99;99041.00;4940177;28;20041;-83
2023/06/07 03:00:01;;;;;;;4.95;2.80;;;;;;;20.27;48.55;99040.44;4954439;28;20122;-83
2023/06/07 03:02:27;;;;;;;6.00;3.13;;;;;;;20.60;47.66;99039.31;4923280;29;20043;-82
2023/06/07 03:04:53;;;;;;;6.35;2.70;;;;;;;20.94;47.00;99047.91;4938586;29;20553;-82
2023/06/07 03:07:20;;;;;;;4.70;2.70;;;;;;;21.16;46.38;99040.94;4939011;29;20071;-81
2023/06/07 03:09:47;;;;;;;4.05;2.70;;;;;;;21.41;45.92;99054.00;4954279;29;20406;-81
2023/06/07 03:12:12;;;;;;;4.93;3.00;;;;;;;21.56;45.65;99038.16;4938792;29;20043;-81
2023/06/07 03:14:41;;;;;;;7.78;4.03;;;;;;;21.79;45.08;99052.19;4938346;29;20102;-82
2023/06/07 03:17:08;;;;;;;8.95;4.28;;;;;;;22.09;44.32;99054.88;4938560;29;20035;-82
2023/06/07 03:19:34;;;;;;;7.95;5.35;;;;;;;22.38;43.77;99056.69;4938857;29;20406;-83
2023/06/07 03:22:00;;;;;;;8.38;4.78;;;;;;;22.67;43.24;99054.97;4922474;29;20035;-82
2023/06/07 03:24:28;;;;;;;9.75;5.13;;;;;;;22.99;42.46;99054.72;4954225;29;20023;-82
2023/06/07 03:26:53;;;;;;;10.17;5.40;;;;;;;23.26;41.65;99053.97;4954064;29;20078;-82
2023/06/07 03:29:19;;;;;;;11.90;6.40;;;;;;;23.55;41.31;99052.16;4954093;29;20041;-82
2023/06/07 03:31:45;;;;;;;9.93;6.82;;;;;;;23.79;40.67;99050.88;4954929;28;20110;-82
2023/06/07 03:34:10;;;;;;;10.93;6.45;;;;;;;23.99;39.78;99051.06;4938320;29;20065;-81
2023/06/07 03:36:36;;;;;;;9.35;6.18;;;;;;;24.25;39.58;99046.06;4938319;29;20039;-83
2023/06/07 03:39:02;;;;;;;9.65;6.85;;;;;;;24.54;39.16;99044.91;4953602;28;20512;-79
2023/06/07 03:41:27;;;;;;;9.10;4.93;;;;;;;24.79;40.88;99045.22;4954920;28;20031;-77
2023/06/07 03:43:53;;;;;;;17.42;2.00;;;;;;;25.30;44.63;99045.75;4954627;28;20441;-90
2023/06/07 03:46:18;;;;;;;10.48;2.83;;;;;;;25.70;42.56;99043.06;4922970;29;20043;-83
2023/06/07 03:48:44;;;;;;;13.40;3.10;;;;;;;26.09;41.71;99047.53;4938488;29;20063;-90
2023/06/07 03:51:09;;;;;;;20.02;3.58;;;;;;;26.39;40.00;99054.22;4940962;29;20569;-82
2023/06/07 03:53:35;;;;;;;6.90;3.13;;;;;;;26.67;39.68;99043.19;4954904;28;20042;-83
2023/06/07 03:56:01;;;;;;;10.77;2.85;;;;;;;27.04;38.58;99044.22;4922110;28;20049;-89
2023/06/07 03:58:26;;;;;;;8.45;3.03;;;;;;;27.43;38.08;99053.00;4954034;29;20394;-86
2023/06/07 04:00:52;;;;;;;6.10;2.47;;;;;;;27.97;36.24;99044.47;4924206;29;20035;-87
2023/06/07 04:03:28;;;;;;;12.77;2.80;;;;;;;28.61;35.60;99042.28;4938839;29;20086;-83
2023/06/07 04:05:57;;;;;;;5.35;2.40;;;;;;;29.19;34.19;99042.69;4939188;29;20027;-82
2023/06/07 04:08:24;;;;;;;7.65;1.92;;;;;;;29.61;32.16;99044.50;4957921;28;20095;-82
2023/06/07 04:10:50;;;;;;;10.38;2.20;;;;;;;30.46;31.16;99041.25;4924290;29;20414;-79
2023/06/07 04:13:15;;;;;;;7.82;2.28;;;;;;;30.87;29.95;99046.59;4953451;28;20190;-81
2023/06/07 04:15:42;;;;;;;6.40;2.05;;;;;;;31.30;29.59;99050.56;4937368;29;20110;-78
2023/06/07 04:18:07;;;;;;;4.47;1.70;;;;;;;31.98;28.04;99045.09;4937390;29;20126;-82
2023/06/07 04:20:33;;;;;;;2.67;1.88;;;;;;;32.40;27.56;99049.97;4954318;28;20496;-77
2023/06/07 04:22:58;;;;;;;4.30;1.90;;;;;;;32.81;26.87;99055.84;4937039;29;20039;-76
2023/06/07 04:25:33;;;;;;;6.45;1.70;;;;;;;33.43;25.83;99050.97;4953599;29;20038;-77
2023/06/07 04:28:02;;;;;;;4.80;1.77;;;;;;;33.92;25.84;99049.91;4922075;29;20031;-75
2023/06/07 04:30:34;;;;;;;3.08;1.45;;;;;;;34.34;24.64;99050.94;4953037;29;20039;-77
2023/06/07 04:33:08;;;;;;;5.65;1.70;;;;;;;33.52;25.80;99049.38;4953123;29;20075;-77
2023/06/07 04:35:37;;;;;;;5.32;1.65;;;;;;;34.41;24.33;99048.78;4937274;28;20094;-75
2023/06/07 04:38:02;;;;;;;3.58;1.70;;;;;;;35.13;23.66;99051.66;4952862;29;20035;-75
2023/06/07 04:40:31;;;;;;;4.38;1.52;;;;;;;35.71;23.00;99050.50;4937299;29;20511;-75
2023/06/07 04:43:05;;;;;;;6.47;1.65;;;;;;;36.00;22.74;99053.47;4921539;29;20027;-77
2023/06/07 04:45:36;;;;;;;6.43;1.50;;;;;;;36.21;22.38;99060.44;4953086;29;20482;-77
2023/06/07 04:48:02;;;;;;;7.43;1.60;;;;;;;36.53;21.92;99051.06;4936766;29;20574;-78
2023/06/07 04:50:29;;;;;;;8.52;1.50;;;;;;;36.50;21.63;99050.78;4937434;29;20043;-81
2023/06/07 04:53:00;;;;;;;4.95;1.52;;;;;;;36.86;21.41;99053.31;4936811;29;20050;-79
2023/06/07 04:55:30;;;;;;;8.50;1.60;;;;;;;37.25;20.55;99060.66;4936822;29;20087;-80
2023/06/07 04:57:59;;;;;;;4.22;1.38;;;;;;;36.91;20.97;99048.66;4951270;29;20346;-80
2023/06/07 05:00:26;;;;;;;5.57;1.60;;;;;;;36.79;20.85;99053.66;4936670;29;20082;-79
2023/06/07 05:02:52;;;;;;;6.68;1.70;;;;;;;37.07;20.40;99046.63;4936842;28;20036;-79
2023/06/07 05:05:24;;;;;;;4.05;1.63;;;;;;;37.35;20.28;99048.88;4952892;29;20042;-80
2023/06/07 05:07:50;;;;;;;6.22;1.60;;;;;;;37.83;19.75;99051.69;4937852;29;20078;-79
2023/06/07 05:10:17;;;;;;;6.20;1.75;;;;;;;37.58;19.80;99053.53;4936748;28;20063;-79
2023/06/07 05:12:42;;;;;;;8.43;1.95;;;;;;;38.17;18.93;99045.28;4923401;29;20507;-80
2023/06/07 05:15:08;;;;;;;5.97;1.55;;;;;;;38.59;18.38;99051.81;4955999;28;20071;-80
2023/06/07 05:17:34;;;;;;;4.50;1.70;;;;;;;39.05;18.03;99055.78;4925133;29;20130;-79
2023/06/07 05:20:00;;;;;;;4.03;1.40;;;;;;;38.98;18.30;99056.13;4940282;29;20027;-79
2023/06/07 05:22:25;;;;;;;4.57;1.27;;;;;;;39.20;18.03;99054.72;4940491;29;20474;-79
2023/06/07 05:24:51;;;;;;;4.93;1.38;;;;;;;39.77;17.63;99065.47;4940361;29;20405;-79
2023/06/07 05:27:17;;;;;;;6.82;1.52;;;;;;;40.53;16.57;99064.22;4924313;29;20039;-80
2023/06/07 05:29:43;;;;;;;4.85;1.80;;;;;;;40.91;16.32;99058.44;4940303;29;20023;-80
2023/06/07 05:32:08;;;;;;;6.47;1.40;;;;;;;41.27;16.63;99061.09;4940222;29;20544;-78
2023/06/07 05:34:35;;;;;;;5.18;1.23;;;;;;;41.53;16.30;99055.78;4955898;29;20066;-78
2023/06/07 05:37:02;;;;;;;6.80;1.30;;;;;;;40.20;17.42;99078.03;4940174;29;20035;-79
2023/06/07 05:39:27;;;;;;;4.78;1.73;;;;;;;41.13;16.45;99063.09;4940093;29;20031;-79
2023/06/07 05:41:53;;;;;;;6.45;1.60;;;;;;;41.16;15.93;99071.50;4939950;29;20137;-80
2023/06/07 05:44:18;;;;;;;3.92;1.52;;;;;;;41.72;15.77;99065.72;4924059;29;20451;-80
2023/06/07 05:46:44;;;;;;;5.80;1.48;;;;;;;42.08;15.60;99072.94;4923716;29;20046;-80
2023/06/07 05:49:09;;;;;;;3.13;1.40;;;;;;;42.23;15.44;99069.78;4956395;28;20043;-80
2023/06/07 05:51:36;;;;;;;2.77;1.30;;;;;;;42.33;15.53;99073.34;4939946;29;20497;-83
2023/06/07 05:54:01;;;;;;;3.50;1.48;;;;;;;42.35;15.85;99069.13;4940226;29;20402;-80
2023/06/07 05:56:27;;;;;;;6.83;1.60;;;;;;;42.41;15.58;99064.31;4939624;29;20051;-80
2023/06/07 05:58:53;;;;;;;3.40;1.43;;;;;;;41.81;16.14;99071.25;4939669;29;20050;-80
2023/06/07 06:01:19;;;;;;;5.90;1.50;;;;;;;42.10;15.45;99065.22;4955545;29;20253;-84
2023/06/07 06:03:44;;;;;;;6.63;1.50;;;;;;;40.70;16.94;99070.66;4939436;29;20027;-80
2023/06/07 06:06:16;;;;;;;4.57;1.58;;;;;;;41.37;16.26;99074.56;4939282;29;20039;-81
2023/06/07 06:08:42;;;;;;;2.60;1.40;;;;;;;41.78;16.04;99072.66;4940003;29;20035;-80
2023/06/07 06:11:10;;;;;;;10.13;1.67;;;;;;;41.88;15.74;99068.84;4939650;29;20031;-81
2023/06/07 06:13:35;;;;;;;3.25;1.60;;;;;;;42.28;15.90;99077.03;4924929;28;20043;-80
2023/06/07 06:16:01;;;;;;;7.07;1.73;;;;;;;42.45;15.34;99077.06;4956122;28;20058;-79
2023/06/07 06:18:26;;;;;;;4.67;1.83;;;;;;;42.68;15.48;99073.38;4922867;29;20035;-81
2023/06/07 06:20:52;;;;;;;5.90;1.30;;;;;;;42.70;14.83;99071.94;4955102;28;20038;-80
2023/06/07 06:23:17;;;;;;;4.63;1.60;;;;;;;41.86;15.66;99077.41;4923409;29;20069;-79
2023/06/07 06:25:43;;;;;;;5.27;1.50;;;;;;;42.06;15.87;99073.25;4924285;28;20099;-80
2023/06/07 06:28:08;;;;;;;3.40;1.30;;;;;;;42.14;15.72;99076.38;4955415;29;20470;-79
2023/06/07 06:30:34;;;;;;;4.53;1.43;;;;;;;41.79;16.23;99079.78;4939246;29;20504;-80
2023/06/07 06:32:59;;;;;;;4.83;1.90;;;;;;;39.98;17.41;99065.94;4955018;28;20035;-80
2023/06/07 06:35:27;;;;;;;6.28;1.63;;;;;;;39.44;18.10;99079.97;4955048;28;20111;-80
2023/06/07 06:37:52;;;;;;;5.53;1.88;;;;;;;39.44;18.25;99079.97;4955165;28;20126;-82
2023/06/07 06:40:20;;;;;;;4.63;1.75;;;;;;;37.91;19.79;99077.47;4938784;29;20035;-82
2023/06/07 06:42:46;;;;;;;6.82;2.70;;;;;;;36.87;20.86;99074.81;4939401;29;20047;-80
2023/06/07 06:45:11;;;;;;;4.72;2.90;;;;;;;37.17;20.58;99074.88;4939609;29;20415;-83
2023/06/07 06:47:41;;;;;;;5.28;2.30;;;;;;;35.91;21.80;99080.38;4938708;29;20446;-81
2023/06/07 06:50:11;;;;;;;6.00;2.20;;;;;;;35.17;22.90;99076.34;4924301;29;20039;-82
2023/06/07 06:52:43;;;;;;;11.85;2.40;;;;;;;35.30;22.58;99076.63;4939533;29;20109;-80
2023/06/07 06:55:09;;;;;;;6.38;4.22;;;;;;;35.39;22.48;99076.09;4940102;29;20024;-81
2023/06/07 06:57:37;;;;;;;9.35;3.80;;;;;;;35.24;22.53;99066.03;4938890;29;20038;-80
2023/06/07 07:00:05;;;;;;;7.63;4.22;;;;;;;35.63;22.50;99077.16;4923420;29;20023;-80
2023/06/07 07:02:31;;;;;;;6.85;3.70;;;;;;;35.60;22.06;99071.47;4939251;29;20058;-80
2023/06/07 07:04:57;;;;;;;9.93;3.15;;;;;;;35.50;22.45;99077.69;4938549;29;20027;-81
2023/06/07 07:07:23;;;;;;;5.72;2.80;;;;;;;35.85;21.70;99076.88;4922986;28;20167;-79
2023/06/07 07:09:49;;;;;;;4.57;2.60;;;;;;;35.88;21.46;99064.63;4922713;29;20039;-79
2023/06/07 07:12:15;;;;;;;6.20;2.88;;;;;;;36.23;21.36;99065.59;4938644;29;20110;-79
2023/06/07 07:14:40;;;;;;;7.00;2.50;;;;;;;36.65;20.76;99069.75;4922948;29;20543;-79
2023/06/07 07:17:06;;;;;;;8.25;3.70;;;;;;;36.95;20.33;99065.22;4923074;29;20430;-79
2023/06/07 07:19:31;;;;;;;16.48;2.83;;;;;;;37.35;20.05;99070.66;4922380;29;20023;-80
2023/06/07 07:21:57;;;;;;;9.05;2.58;;;;;;;37.56;19.76;99066.63;4938310;29;20030;-79
2023/06/07 07:24:22;;;;;;;7.18;2.35;;;;;;;37.72;19.22;99075.50;4938669;29;20035;-80
2023/06/07 07:26:48;;;;;;;6.28;2.22;;;;;;;37.69;19.11;99069.81;4938442;29;20043;-80
2023/06/07 07:29:14;;;;;;;3.50;2.20;;;;;;;37.74;19.47;99058.88;4953864;28;20043;-79
2023/06/07 07:31:39;;;;;;;5.68;2.13;;;;;;;37.82;19.41;99064.47;4938241;29;20035;-79
2023/06/07 07:34:05;;;;;;;7.18;2.20;;;;;;;37.95;19.29;99075.78;4921315;29;20023;-80
2023/06/07 07:36:33;;;;;;;7.78;1.90;;;;;;;37.91;19.34;99061.13;4953853;28;20042;-81
2023/06/07 07:39:04;;;;;;;4.53;2.00;;;;;;;37.55;19.84;99072.38;4922892;28;20027;-81
2023/06/07 07:41:32;;;;;;;4.63;1.90;;;;;;;37.48;19.47;99056.38;4939417;29;20102;-81
2023/06/07 07:43:58;;;;;;;3.33;2.38;;;;;;;37.37;20.06;99061.09;4922556;29;20042;-79
2023/06/07 07:46:23;;;;;;;5.85;2.20;;;;;;;37.24;20.07;99065.31;4938400;29;20471;-81
2023/06/07 07:48:49;;;;;;;7.30;2.38;;;;;;;36.78;20.52;99062.88;4953851;29;20607;-81
2023/06/07 07:51:15;;;;;;;7.53;2.17;;;;;;;36.27;20.80;99069.41;4921945;29;20055;-80
2023/06/07 07:53:42;;;;;;;5.32;2.00;;;;;;;36.14;21.04;99062.63;4953655;29;20042;-79
2023/06/07 07:56:07;;;;;;;6.28;2.00;;;;;;;36.28;21.10;99060.16;4938222;29;20558;-81
2023/06/07 07:58:33;;;;;;;5.32;1.77;;;;;;;36.35;20.86;99059.84;4953671;29;20039;-80
2023/06/07 08:00:58;;;;;;;4.35;2.00;;;;;;;36.23;20.47;99055.53;4937745;29;20026;-79
2023/06/07 08:03:24;;;;;;;3.85;1.77;;;;;;;36.21;20.41;99059.63;4921654;29;20055;-79
2023/06/07 08:05:50;;;;;;;7.63;1.98;;;;;;;36.18;20.54;99058.28;4921624;28;20035;-78
2023/06/07 08:08:19;;;;;;;5.10;2.03;;;;;;;35.90;20.71;99050.75;4937877;29;20502;-79
2023/06/07 08:10:45;;;;;;;5.72;1.85;;;;;;;35.90;20.63;99057.03;4923221;29;20441;-79
2023/06/07 08:13:11;;;;;;;7.38;1.88;;;;;;;35.87;20.73;99063.00;4922024;29;20050;-79
2023/06/07 08:15:36;;;;;;;5.53;1.73;;;;;;;35.79;20.86;99056.25;4937938;29;20035;-79
2023/06/07 08:18:02;;;;;;;2.58;1.60;;;;;;;35.77;21.06;99047.56;4922014;29;20458;-80
2023/06/07 08:20:27;;;;;;;5.97;1.70;;;;;;;35.76;21.19;99048.63;4937462;29;20098;-79
2023/06/07 08:22:53;;;;;;;4.40;1.90;;;;;;;35.79;21.60;99039.94;4921675;29;20035;-80
2023/06/07 08:25:18;;;;;;;3.53;1.77;;;;;;;35.82;21.30;99046.72;4953345;28;20474;-80
2023/06/07 08:27:45;;;;;;;6.07;2.00;;;;;;;35.84;21.37;99041.84;4921528;29;20066;-82
2023/06/07 08:30:11;;;;;;;5.30;1.80;;;;;;;35.82;21.19;99041.28;4937660;29;20024;-80
2023/06/07 08:32:37;;;;;;;8.88;2.00;;;;;;;35.78;21.41;99051.88;4954579;28;20371;-79
2023/06/07 08:35:03;;;;;;;6.75;2.05;;;;;;;35.78;21.14;99043.75;4937290;28;20031;-79
2023/06/07 08:37:28;;;;;;;4.05;1.60;;;;;;;35.80;21.36;99054.31;4921391;29;20028;-80
2023/06/07 08:39:54;;;;;;;5.60;1.73;;;;;;;35.69;21.48;99051.63;4922116;29;20135;-79
2023/06/07 08:42:19;;;;;;;4.78;1.60;;;;;;;35.60;21.29;99053.25;4952798;28;20039;-78
2023/06/07 08:44:45;;;;;;;6.63;1.95;;;;;;;35.45;21.89;99058.72;4921433;29;20046;-80
2023/06/07 08:47:11;;;;;;;8.40;2.00;;;;;;;35.32;21.94;99050.03;4940466;29;20062;-80
2023/06/07 08:49:37;;;;;;;4.40;2.28;;;;;;;35.26;22.06;99047.59;4925833;29;20063;-81
2023/06/07 08:52:03;;;;;;;7.00;2.33;;;;;;;35.22;21.88;99039.16;4941560;29;20094;-80
2023/06/07 08:54:28;;;;;;;4.97;2.80;;;;;;;35.13;22.10;99038.88;4941360;29;20489;-80
2023/06/07 08:56:55;;;;;;;4.95;2.78;;;;;;;34.93;21.90;99049.72;4941199;29;20498;-79
2023/06/07 08:59:21;;;;;;;8.55;2.42;;;;;;;34.85;22.16;99034.81;4940895;29;20031;-80
2023/06/07 09:01:46;;;;;;;4.78;2.50;;;;;;;34.81;21.98;99038.31;4941334;29;20066;-79
2023/06/07 09:04:12;;;;;;;4.88;2.10;;;;;;;34.73;22.00;99040.47;4956704;28;20058;-80
2023/06/07 09:06:37;;;;;;;6.75;2.28;;;;;;;34.65;22.02;99032.03;4924739;29;20109;-79
2023/06/07 09:09:04;;;;;;;4.15;2.17;;;;;;;34.50;22.24;99030.13;4940957;29;20063;-80
2023/06/07 09:11:30;;;;;;;6.57;1.98;;;;;;;34.42;22.74;99034.97;4925029;29;20055;-79
2023/06/07 09:13:56;;;;;;;4.78;2.08;;;;;;;34.37;22.64;99034.97;4940609;29;20108;-79
2023/06/07 09:16:22;;;;;;;4.40;1.83;;;;;;;34.26;22.88;99038.72;4924736;29;20058;-80
2023/06/07 09:18:55;;;;;;;3.90;2.03;;;;;;;34.16;23.02;99028.66;4940245;29;20486;-81
2023/06/07 09:21:21;;;;;;;3.90;1.83;;;;;;;34.05;23.39;99025.06;4941482;29;20534;-81
2023/06/07 09:23:47;;;;;;;5.82;2.10;;;;;;;33.97;23.49;99027.47;4956336;29;20027;-79
2023/06/07 09:26:14;;;;;;;5.45;2.10;;;;;;;33.70;23.45;99017.59;4924503;29;20034;-78
2023/06/07 09:28:39;;;;;;;4.25;2.22;;;;;;;33.39;24.18;99020.09;4940276;29;20046;-80
2023/06/07 09:31:05;;;;;;;7.28;2.10;;;;;;;33.21;24.29;99021.31;4924143;29;20039;-80
2023/06/07 09:33:33;;;;;;;4.10;1.85;;;;;;;33.04;24.38;99021.41;4924638;29;20039;-79
2023/06/07 09:36:07;;;;;;;5.93;2.05;;;;;;;32.91;24.63;99009.16;4956189;28;20059;-80
2023/06/07 09:38:34;;;;;;;3.78;1.80;;;;;;;32.70;24.86;99007.31;4940726;29;20027;-80
2023/06/07 09:41:00;;;;;;;8.57;2.00;;;;;;;32.41;25.15;99011.06;4940226;29;20038;-80
2023/06/07 09:43:25;;;;;;;5.43;1.70;;;;;;;32.33;25.33;99005.31;4940264;29;20094;-81
2023/06/07 09:45:55;;;;;;;3.08;2.10;;;;;;;32.17;25.80;99002.44;4940079;29;20116;-83
2023/06/07 09:48:20;;;;;;;7.07;2.30;;;;;;;32.12;25.77;99006.94;4940087;29;20051;-80
2023/06/07 09:50:58;;;;;;;5.70;2.25;;;;;;;31.88;26.16;98997.19;4939796;29;20459;-80
2023/06/07 09:53:24;;;;;;;4.53;2.40;;;;;;;31.84;26.42;99012.25;4955891;29;20069;-81
2023/06/07 09:55:50;;;;;;;8.07;2.45;;;;;;;31.81;26.39;99001.13;4939669;29;20517;-80
2023/06/07 09:58:19;;;;;;;3.90;2.30;;;;;;;31.67;26.74;99001.47;4939416;29;20525;-83
2023/06/07 10:00:45;;;;;;;6.38;2.10;;;;;;;31.70;26.67;99002.88;4939869;29;20067;-80
2023/06/07 10:03:12;;;;;;;5.05;2.05;;;;;;;31.73;26.83;99005.88;4939786;29;20031;-80
2023/06/07 10:05:38;;;;;;;4.40;2.03;;;;;;;31.72;26.82;99004.28;4939933;29;20031;-81
2023/06/07 10:08:05;;;;;;;4.75;2.00;;;;;;;31.70;27.16;98998.28;4939937;29;20074;-82
2023/06/07 10:10:30;;;;;;;7.57;2.20;;;;;;;31.55;27.21;99004.31;4939997;29;20035;-81
2023/06/07 10:12:56;;;;;;;5.22;2.20;;;;;;;31.54;27.44;99008.06;4923793;29;20090;-82
2023/06/07 10:15:25;;;;;;;5.15;2.35;;;;;;;31.48;27.39;99002.81;4939970;29;20024;-82
2023/06/07 10:18:21;;;;;;;4.43;2.10;;;;;;;31.41;26.97;99007.53;4924760;29;20035;-82
2023/06/07 10:20:57;;;;;;;5.15;2.17;;;;;;;31.36;27.37;99002.94;4955382;28;20028;-83
2023/06/07 10:23:35;;;;;;;3.85;1.90;;;;;;;31.30;27.32;99001.22;4955467;28;20062;-81
2023/06/07 10:26:05;;;;;;;3.08;1.85;;;;;;;31.25;27.55;98998.41;4940009;29;20035;-80
2023/06/07 10:28:50;;;;;;;7.13;2.28;;;;;;;31.16;27.39;98998.03;4939739;29;20043;-81
2023/06/07 10:31:16;;;;;;;4.65;2.00;;;;;;;31.11;27.46;98992.56;4955218;28;20497;-81
2023/06/07 10:33:42;;;;;;;5.07;1.90;;;;;;;31.07;27.27;98996.78;4923388;29;20039;-80
2023/06/07 10:36:08;;;;;;;9.23;2.35;;;;;;;30.97;27.44;99000.16;4955119;28;20033;-79
2023/06/07 10:38:33;;;;;;;4.13;1.98;;;;;;;30.86;27.51;98993.72;4939662;29;20530;-81
2023/06/07 10:41:01;;;;;;;4.43;1.80;;;;;;;30.79;27.79;98984.97;4923461;29;20291;-80
2023/06/07 10:43:27;;;;;;;8.27;2.00;;;;;;;30.76;27.74;98983.59;4939165;29;20031;-81
2023/06/07 10:46:23;;;;;;;3.38;1.88;;;;;;;30.75;27.92;98994.63;4954764;28;20028;-82
2023/06/07 10:48:49;;;;;;;5.63;1.90;;;;;;;30.74;27.97;98987.59;4954546;28;20071;-81
2023/06/07 10:51:15;;;;;;;3.47;2.03;;;;;;;30.68;28.05;98978.63;4923645;29;20541;-78
2023/06/07 10:53:56;;;;;;;6.40;2.00;;;;;;;30.64;27.78;98980.97;4939550;28;20100;-80
2023/06/07 10:56:32;;;;;;;6.38;2.00;;;;;;;30.58;27.97;98994.59;4954738;28;20023;-80
2023/06/07 10:59:13;;;;;;;5.97;2.22;;;;;;;30.53;28.12;98983.72;4954720;28;20506;-79
2023/06/07 11:01:38;;;;;;;4.72;2.30;;;;;;;30.46;27.53;98975.81;4955815;28;20062;-79
2023/06/07 11:04:04;;;;;;;5.15;2.00;;;;;;;30.51;27.98;98983.16;4938796;29;20500;-80
2023/06/07 11:06:32;;;;;;;8.15;1.80;;;;;;;30.45;27.89;98979.53;4954556;28;20062;-85
2023/06/07 11:09:17;;;;;;;4.88;2.15;;;;;;;30.46;28.16;98982.00;4922616;29;20101;-80
2023/06/07 11:11:43;;;;;;;5.75;2.20;;;;;;;30.39;28.24;98988.56;4954399;28;20106;-81
2023/06/07 11:14:10;;;;;;;6.28;1.95;;;;;;;30.23;28.04;98976.69;4922772;29;20066;-78
2023/06/07 11:16:36;;;;;;;5.40;2.28;;;;;;;30.19;28.42;98979.03;4922869;29;20122;-83
2023/06/07 11:19:09;;;;;;;7.82;2.30;;;;;;;30.15;28.32;98977.88;4938406;29;20118;-79
2023/06/07 11:22:05;;;;;;;5.25;2.13;;;;;;;30.15;28.24;98985.13;4939286;29;20501;-83
2023/06/07 11:24:31;;;;;;;4.63;2.00;;;;;;;30.11;27.65;98979.41;4954777;28;20031;-78
2023/06/07 11:26:57;;;;;;;4.30;1.90;;;;;;;29.93;28.51;98980.38;4922427;29;20094;-78
2023/06/07 11:29:22;;;;;;;4.70;2.10;;;;;;;29.78;28.49;98960.16;4922101;29;20039;-78
2023/06/07 11:31:49;;;;;;;7.00;1.95;;;;;;;29.88;28.26;98973.03;4921898;29;20475;-77
2023/06/07 11:34:14;;;;;;;5.45;1.60;;;;;;;29.93;27.74;98975.00;4937888;29;20039;-78